MQL weather

Mildura Airport
Mildura, Victoria, Australia

Public forecast

Using degrees Celsius for public forecast. Weather courtesy of forecast.io.

METAR (pilot weather report)

Retrieved 2019/04/19 18:00 UTC (36 minutes ago):

YMIA 191800Z AUTO 05006KT 9999 // NCD 17/05 Q1021

TAF (pilot weather forecast)

Closest forecast is Adelaide International Airport, 180.9 nm (335.0 km) WSW. Retrieved 2019/04/19 18:00 UTC (36 minutes ago):

TAF YPAD 191718Z 1918/2024 04010KT CAVOK FM192300 01023G35KT CAVOK FM200300 33018KT CAVOK FM200900 02012KT CAVOK FM201400 26014KT 9999 SCT020 FM201800 24012KT 9999 -SHRA BKN020 INTER 2019/2024 5000 SHRA SCT010 BKN020